• Join FlightAware (Why Join?)
  • Login
  • US Flag 
11:27PM EDT


 

Airport Tracker/Info


-or-


 

Live Flight TrackerFlight Track Log ✈ JZA8478 ✈ 27-May-2012 ✈ CYQU - CYYC

Flight Track Log - Related Links

Times and Time Zones

All times are in EDT time to prevent confusion due to time zone crossing. See the JZA8478 flight status page for this flight to view local times or setup timezone preferences in your user account.

Time Position Orientation Groundspeed Altitude Reporting Facility
EDT Latitude Longitude Course Direction KTS MPH feet Rate Location/Type
02:20PM 55.1500 -118.9500 360° North 20 23 2,200  Level Edmonton Center
02:21PM 55.1500 -118.9500 66° East 10 12 2,200 600 Level Edmonton Center
02:22PM 55.1667 -118.8833 131° Southeast 120 138 3,400 1,020 Climbing Edmonton Center
02:23PM 55.1333 -118.8167 150° Southeast 150 173 4,300 1,020 Climbing Edmonton Center
02:24PM 55.0833 -118.7667 169° South 170 196 5,500 1,140 Climbing Edmonton Center
02:25PM 55.0333 -118.7500 150° Southeast 180 207 6,600 1,140 Climbing Edmonton Center
02:26PM 54.9833 -118.7000 150° Southeast 180 207 7,800 1,200 Climbing Edmonton Center
02:27PM 54.9500 -118.6667 150° Southeast 180 207 9,000 1,140 Climbing Edmonton Center
02:28PM 54.9000 -118.6167 150° Southeast 190 219 10,100 1,020 Climbing Edmonton Center
02:29PM 54.8500 -118.5667 169° South 190 219 11,100 1,080 Climbing Edmonton Center
02:30PM 54.8000 -118.5500 150° Southeast 190 219 12,300 1,200 Climbing Edmonton Center
02:31PM 54.7500 -118.5000 139° Southeast 190 219 13,500 1,020 Climbing Edmonton Center
02:32PM 54.7167 -118.4500 142° Southeast 200 230 14,400 960 Climbing Edmonton Center
02:33PM 54.6667 -118.3833 150° Southeast 200 230 15,500 900 Climbing Edmonton Center
02:34PM 54.6167 -118.3333 131° Southeast 200 230 16,300 840 Climbing Edmonton Center
02:35PM 54.5833 -118.2667 136° Southeast 210 242 17,200 900 Climbing Edmonton Center
02:36PM 54.5333 -118.1833 159° South 210 242 18,100 780 Climbing Edmonton Center
02:37PM 54.4833 -118.1500 136° Southeast 210 242 18,800 720 Climbing Edmonton Center
02:38PM 54.4333 -118.0667 150° Southeast 220 253 19,600 840 Climbing Edmonton Center
02:39PM 54.3833 -118.0167 159° South 210 242 20,500 660 Climbing Edmonton Center
02:40PM 54.3333 -117.9833 124° Southeast 210 242 21,000 240 Climbing Edmonton Center
02:41PM 54.3000 -117.9000 144° Southeast 230 265 21,000  Level Edmonton Center
02:42PM 54.2333 -117.8167 150° Southeast 250 288 21,000  Level Edmonton Center
02:43PM 54.1667 -117.7500 136° Southeast 260 299 21,000  Level Edmonton Center
02:44PM 54.1167 -117.6667 144° Southeast 260 299 21,000  Level Edmonton Center
02:45PM 54.0500 -117.5833 142° Southeast 260 299 21,000  Level Edmonton Center
02:46PM 54.0000 -117.5167 130° Southeast 260 299 21,000  Level Edmonton Center
02:47PM 53.9500 -117.4167 136° Southeast 260 299 21,000  Level Edmonton Center
02:48PM 53.9000 -117.3333 130° Southeast 260 299 21,000  Level Edmonton Center
02:49PM 53.8500 -117.2333 149° Southeast 260 299 21,000  Level Edmonton Center
02:50PM 53.7833 -117.1667 126° Southeast 260 299 21,000  Level Edmonton Center
02:51PM 53.7333 -117.0500 142° Southeast 260 299 21,000  Level Edmonton Center
02:52PM 53.6833 -116.9833 135° Southeast 260 299 21,000  Level Edmonton Center
02:53PM 53.6333 -116.9000 138° Southeast 260 299 21,000  Level Edmonton Center
02:54PM 53.5667 -116.8000 142° Southeast 270 311 21,000  Level Edmonton Center
02:55PM 53.5167 -116.7333 135° Southeast 270 311 21,000  Level Edmonton Center
02:56PM 53.4667 -116.6500 130° Southeast 260 299 21,000  Level Edmonton Center
02:57PM 53.4167 -116.5500 149° Southeast 260 299 21,000  Level Edmonton Center
02:58PM 53.3500 -116.4833 138° Southeast 270 311 21,000  Level Edmonton Center
02:59PM 53.2833 -116.3833 135° Southeast 270 311 21,000  Level Edmonton Center
03:00PM 53.2333 -116.3000 149° Southeast 270 311 21,000  Level Edmonton Center
03:01PM 53.1667 -116.2333 141° Southeast 260 299 21,000  Level Edmonton Center
03:02PM 53.1167 -116.1667 135° Southeast 270 311 21,000  Level Edmonton Center
03:03PM 53.0667 -116.0833 149° Southeast 260 299 21,000  Level Edmonton Center
03:04PM 53.0000 -116.0167 143° Southeast 260 299 21,100  Climbing Edmonton Center
03:05PM 52.9333 -115.9333 141° Southeast 270 311 21,100  Level Edmonton Center
03:06PM 52.8833 -115.8667 149° Southeast 260 299 21,100  Level Edmonton Center
03:07PM 52.8167 -115.8000 143° Southeast 270 311 21,100  Level Edmonton Center
03:08PM 52.7500 -115.7167 141° Southeast 270 311 21,100 -60 Level Edmonton Center
03:09PM 52.7000 -115.6500 149° Southeast 270 311 21,000 -60 Descending Edmonton Center
03:10PM 52.6333 -115.5833 129° Southeast 270 311 21,000  Level Edmonton Center
03:11PM 52.5833 -115.4833 141° Southeast 270 311 21,000  Level Edmonton Center
03:12PM 52.5333 -115.4167 149° Southeast 270 311 21,000  Level Edmonton Center
03:13PM 52.4500 -115.3333 163° South 270 311 21,000  Level Edmonton Center
03:14PM 52.3833 -115.3000 155° Southeast 260 299 21,000  Level Edmonton Center
03:15PM 52.3167 -115.2500 149° Southeast 260 299 21,000  Level Edmonton Center
03:16PM 52.2667 -115.2000 173° South 270 311 21,000 -600 Level Edmonton Center
03:17PM 52.1833 -115.1833 154° Southeast 280 322 19,800 -1,440 Descending Edmonton Center
03:18PM 52.1000 -115.1167 166° South 310 357 18,200 -1,500 Descending Edmonton Center
03:19PM 52.0167 -115.0833 166° South 300 345 16,800 -1,500 Descending Edmonton Center
03:20PM 51.9333 -115.0500 155° Southeast 280 322 15,200 -1,500 Descending Edmonton Center
03:21PM 51.8667 -115.0000 160° South 280 322 13,800 -1,500 Descending Edmonton Center
03:22PM 51.7833 -114.9500 163° South 270 311 12,200 -1,320 Descending Edmonton Center
03:23PM 51.7167 -114.9167 148° Southeast 260 299 11,200 -600 Descending Edmonton Center
03:24PM 51.6667 -114.8667 163° South 260 299 11,000 -120 Descending Edmonton Center
03:25PM 51.6000 -114.8333 140° Southeast 260 299 11,000 -120 Level Edmonton Center
03:26PM 51.5500 -114.7667 137° Southeast 250 288 10,800 -600 Descending Edmonton Center
03:27PM 51.4833 -114.6667 140° Southeast 270 311 9,800 -1,020 Descending Edmonton Center
03:28PM 51.4333 -114.6000 148° Southeast 270 311 8,800 -900 Descending Edmonton Center
03:29PM 51.3667 -114.5333 155° Southeast 260 299 8,000 -420 Descending Edmonton Center
03:30PM 51.3000 -114.4833 148° Southeast 250 288 8,000 -60 Level Edmonton Center
03:31PM 51.2333 -114.4167 129° Southeast 250 288 7,900 -360 Descending Edmonton Center
03:32PM 51.2000 -114.3500 123° Southeast 250 288 7,300 -780 Descending Edmonton Center
03:33PM 51.1667 -114.2667 122° Southeast 230 265 6,400 -1,080 Descending Edmonton Center
03:34PM 51.1333 -114.1833 112° Southeast 190 219 5,200 -960 Descending Edmonton Center
03:35PM 51.1167 -114.1167 118° Southeast 150 173 4,500 -720 Descending Edmonton Center
03:36PM 51.1000 -114.0667 129° Southeast 130 150 3,800 -540 Descending Edmonton Center
03:37PM 51.0833 -114.0333 360° North 80 92 3,500 -180 Descending Edmonton Center
03:38PM 51.1000 -114.0333 360° North 20 23 3,500  Level Edmonton Center